sensor_id;sensor_type;location;lat;lon;timestamp;temperature;humidity
17619;DHT22;8928;51.678;6.074;2022-10-16T00:01:59;10.90;99.90
17619;DHT22;8928;51.678;6.074;2022-10-16T00:04:46;10.90;99.90
17619;DHT22;8928;51.678;6.074;2022-10-16T00:07:33;10.90;99.90
17619;DHT22;8928;51.678;6.074;2022-10-16T00:10:21;11.00;99.90
17619;DHT22;8928;51.678;6.074;2022-10-16T00:13:08;11.10;99.90
17619;DHT22;8928;51.678;6.074;2022-10-16T00:15:57;11.10;99.90
17619;DHT22;8928;51.678;6.074;2022-10-16T00:18:44;11.20;99.90
17619;DHT22;8928;51.678;6.074;2022-10-16T00:21:32;11.20;99.90
17619;DHT22;8928;51.678;6.074;2022-10-16T00:24:19;11.10;99.90
17619;DHT22;8928;51.678;6.074;2022-10-16T00:27:06;11.10;99.90
17619;DHT22;8928;51.678;6.074;2022-10-16T00:29:53;11.00;99.90
17619;DHT22;8928;51.678;6.074;2022-10-16T00:32:42;11.00;99.90
17619;DHT22;8928;51.678;6.074;2022-10-16T00:35:30;10.90;99.90
17619;DHT22;8928;51.678;6.074;2022-10-16T00:38:17;10.90;99.90
17619;DHT22;8928;51.678;6.074;2022-10-16T00:41:04;10.90;99.90
17619;DHT22;8928;51.678;6.074;2022-10-16T00:43:53;10.80;99.90
17619;DHT22;8928;51.678;6.074;2022-10-16T00:46:41;10.80;99.90
17619;DHT22;8928;51.678;6.074;2022-10-16T00:49:30;10.70;99.90
17619;DHT22;8928;51.678;6.074;2022-10-16T00:52:17;10.70;99.90
17619;DHT22;8928;51.678;6.074;2022-10-16T00:55:06;10.70;99.90
17619;DHT22;8928;51.678;6.074;2022-10-16T00:57:54;10.70;99.90
17619;DHT22;8928;51.678;6.074;2022-10-16T01:00:41;10.60;99.90
17619;DHT22;8928;51.678;6.074;2022-10-16T01:03:30;10.60;99.90
17619;DHT22;8928;51.678;6.074;2022-10-16T01:06:35;10.60;99.90
17619;DHT22;8928;51.678;6.074;2022-10-16T01:09:27;10.50;99.90
17619;DHT22;8928;51.678;6.074;2022-10-16T01:12:23;10.50;99.90
17619;DHT22;8928;51.678;6.074;2022-10-16T01:15:20;10.50;99.90
17619;DHT22;8928;51.678;6.074;2022-10-16T01:18:11;10.50;99.90
17619;DHT22;8928;51.678;6.074;2022-10-16T01:21:02;10.50;99.90
17619;DHT22;8928;51.678;6.074;2022-10-16T01:24:01;10.50;99.90
17619;DHT22;8928;51.678;6.074;2022-10-16T01:27:08;10.50;99.90
17619;DHT22;8928;51.678;6.074;2022-10-16T01:29:59;10.60;99.90
17619;DHT22;8928;51.678;6.074;2022-10-16T01:32:51;10.50;99.90
17619;DHT22;8928;51.678;6.074;2022-10-16T01:35:42;10.50;99.90
17619;DHT22;8928;51.678;6.074;2022-10-16T01:38:33;10.50;99.90
17619;DHT22;8928;51.678;6.074;2022-10-16T01:41:24;10.50;99.90
17619;DHT22;8928;51.678;6.074;2022-10-16T01:44:18;10.50;99.90
17619;DHT22;8928;51.678;6.074;2022-10-16T01:47:07;10.60;99.90
17619;DHT22;8928;51.678;6.074;2022-10-16T01:49:57;10.50;99.90
17619;DHT22;8928;51.678;6.074;2022-10-16T01:52:48;10.50;99.90
17619;DHT22;8928;51.678;6.074;2022-10-16T01:55:39;10.50;99.90
17619;DHT22;8928;51.678;6.074;2022-10-16T01:58:34;10.50;99.90
17619;DHT22;8928;51.678;6.074;2022-10-16T02:01:26;10.50;99.90
17619;DHT22;8928;51.678;6.074;2022-10-16T02:04:18;10.50;99.90
17619;DHT22;8928;51.678;6.074;2022-10-16T02:07:06;10.60;99.90
17619;DHT22;8928;51.678;6.074;2022-10-16T02:09:54;10.70;99.90
17619;DHT22;8928;51.678;6.074;2022-10-16T02:12:45;10.80;99.90
17619;DHT22;8928;51.678;6.074;2022-10-16T02:15:35;11.00;99.90
17619;DHT22;8928;51.678;6.074;2022-10-16T02:18:23;11.00;99.90
17619;DHT22;8928;51.678;6.074;2022-10-16T02:21:19;11.00;99.90
17619;DHT22;8928;51.678;6.074;2022-10-16T02:24:13;11.10;99.90
17619;DHT22;8928;51.678;6.074;2022-10-16T02:27:06;11.10;99.90
17619;DHT22;8928;51.678;6.074;2022-10-16T02:30:00;11.10;99.90
17619;DHT22;8928;51.678;6.074;2022-10-16T02:32:53;11.10;99.90
17619;DHT22;8928;51.678;6.074;2022-10-16T02:35:44;11.10;99.90
17619;DHT22;8928;51.678;6.074;2022-10-16T02:38:32;11.10;99.90
17619;DHT22;8928;51.678;6.074;2022-10-16T02:41:20;11.10;99.90
17619;DHT22;8928;51.678;6.074;2022-10-16T02:44:08;11.10;99.90
17619;DHT22;8928;51.678;6.074;2022-10-16T02:46:55;11.10;99.90
17619;DHT22;8928;51.678;6.074;2022-10-16T02:49:42;11.00;99.90
17619;DHT22;8928;51.678;6.074;2022-10-16T02:52:30;11.00;99.90
17619;DHT22;8928;51.678;6.074;2022-10-16T02:55:17;11.00;99.90
17619;DHT22;8928;51.678;6.074;2022-10-16T02:58:04;10.90;99.90
17619;DHT22;8928;51.678;6.074;2022-10-16T03:00:51;10.90;99.90
17619;DHT22;8928;51.678;6.074;2022-10-16T03:03:38;10.90;99.90
17619;DHT22;8928;51.678;6.074;2022-10-16T03:06:25;10.90;99.90
17619;DHT22;8928;51.678;6.074;2022-10-16T03:09:14;10.90;99.90
17619;DHT22;8928;51.678;6.074;2022-10-16T03:12:01;10.90;99.90
17619;DHT22;8928;51.678;6.074;2022-10-16T03:14:48;10.90;99.90
17619;DHT22;8928;51.678;6.074;2022-10-16T03:17:35;10.80;99.90
17619;DHT22;8928;51.678;6.074;2022-10-16T03:20:22;10.80;99.90
17619;DHT22;8928;51.678;6.074;2022-10-16T03:23:09;10.80;99.90
17619;DHT22;8928;51.678;6.074;2022-10-16T03:25:57;10.80;99.90
17619;DHT22;8928;51.678;6.074;2022-10-16T03:28:44;10.70;99.90
17619;DHT22;8928;51.678;6.074;2022-10-16T03:31:31;10.80;99.90
17619;DHT22;8928;51.678;6.074;2022-10-16T03:34:18;10.80;99.90
17619;DHT22;8928;51.678;6.074;2022-10-16T03:37:05;10.80;99.90
17619;DHT22;8928;51.678;6.074;2022-10-16T03:39:53;11.00;99.90
17619;DHT22;8928;51.678;6.074;2022-10-16T03:42:42;11.10;99.90
17619;DHT22;8928;51.678;6.074;2022-10-16T03:45:29;11.20;99.90
17619;DHT22;8928;51.678;6.074;2022-10-16T03:48:16;11.30;99.90
17619;DHT22;8928;51.678;6.074;2022-10-16T03:51:03;11.40;99.90
17619;DHT22;8928;51.678;6.074;2022-10-16T03:53:50;11.40;99.90
17619;DHT22;8928;51.678;6.074;2022-10-16T03:56:38;11.40;99.90
17619;DHT22;8928;51.678;6.074;2022-10-16T03:59:26;11.40;99.90
17619;DHT22;8928;51.678;6.074;2022-10-16T04:02:13;11.40;99.90
17619;DHT22;8928;51.678;6.074;2022-10-16T04:05:00;11.30;99.90
17619;DHT22;8928;51.678;6.074;2022-10-16T04:07:47;11.30;99.90
17619;DHT22;8928;51.678;6.074;2022-10-16T04:10:34;11.40;99.90
17619;DHT22;8928;51.678;6.074;2022-10-16T04:13:21;11.40;99.90
17619;DHT22;8928;51.678;6.074;2022-10-16T04:16:10;11.40;99.90
17619;DHT22;8928;51.678;6.074;2022-10-16T04:18:57;11.40;99.90
17619;DHT22;8928;51.678;6.074;2022-10-16T04:21:44;11.40;99.90
17619;DHT22;8928;51.678;6.074;2022-10-16T04:24:31;11.50;99.90
17619;DHT22;8928;51.678;6.074;2022-10-16T04:27:18;11.40;99.90
17619;DHT22;8928;51.678;6.074;2022-10-16T04:30:06;11.40;99.90
17619;DHT22;8928;51.678;6.074;2022-10-16T04:32:54;11.30;99.90
17619;DHT22;8928;51.678;6.074;2022-10-16T04:35:42;11.30;99.90
17619;DHT22;8928;51.678;6.074;2022-10-16T04:38:29;11.30;99.90
17619;DHT22;8928;51.678;6.074;2022-10-16T04:41:16;11.40;99.90
17619;DHT22;8928;51.678;6.074;2022-10-16T04:44:03;11.50;99.90
17619;DHT22;8928;51.678;6.074;2022-10-16T04:46:51;11.50;99.90
17619;DHT22;8928;51.678;6.074;2022-10-16T04:49:39;11.40;99.90
17619;DHT22;8928;51.678;6.074;2022-10-16T04:52:26;11.40;99.90
17619;DHT22;8928;51.678;6.074;2022-10-16T04:55:13;11.50;99.90
17619;DHT22;8928;51.678;6.074;2022-10-16T04:58:00;11.50;99.90
17619;DHT22;8928;51.678;6.074;2022-10-16T05:00:47;11.50;99.90
17619;DHT22;8928;51.678;6.074;2022-10-16T05:03:34;11.50;99.90
17619;DHT22;8928;51.678;6.074;2022-10-16T05:06:23;11.40;99.90
17619;DHT22;8928;51.678;6.074;2022-10-16T05:09:10;11.40;99.90
17619;DHT22;8928;51.678;6.074;2022-10-16T05:11:57;11.40;99.90
17619;DHT22;8928;51.678;6.074;2022-10-16T05:14:44;11.40;99.90
17619;DHT22;8928;51.678;6.074;2022-10-16T05:17:31;11.40;99.90
17619;DHT22;8928;51.678;6.074;2022-10-16T05:20:18;11.40;99.90
17619;DHT22;8928;51.678;6.074;2022-10-16T05:23:06;11.30;99.90
17619;DHT22;8928;51.678;6.074;2022-10-16T05:25:56;11.30;99.90
17619;DHT22;8928;51.678;6.074;2022-10-16T05:28:44;11.30;99.90
17619;DHT22;8928;51.678;6.074;2022-10-16T05:31:31;11.20;99.90
17619;DHT22;8928;51.678;6.074;2022-10-16T05:34:18;11.30;99.90
17619;DHT22;8928;51.678;6.074;2022-10-16T05:37:05;11.30;99.90
17619;DHT22;8928;51.678;6.074;2022-10-16T05:39:53;11.30;99.90
17619;DHT22;8928;51.678;6.074;2022-10-16T05:42:40;11.30;99.90
17619;DHT22;8928;51.678;6.074;2022-10-16T05:45:27;11.40;99.90
17619;DHT22;8928;51.678;6.074;2022-10-16T05:48:14;11.40;99.90
17619;DHT22;8928;51.678;6.074;2022-10-16T05:51:03;11.40;99.90
17619;DHT22;8928;51.678;6.074;2022-10-16T05:53:52;11.30;99.90
17619;DHT22;8928;51.678;6.074;2022-10-16T05:56:40;11.40;99.90
17619;DHT22;8928;51.678;6.074;2022-10-16T05:59:27;11.50;99.90
17619;DHT22;8928;51.678;6.074;2022-10-16T06:02:16;11.40;99.90
17619;DHT22;8928;51.678;6.074;2022-10-16T06:05:03;11.30;99.90
17619;DHT22;8928;51.678;6.074;2022-10-16T06:07:50;11.30;99.90
17619;DHT22;8928;51.678;6.074;2022-10-16T06:10:37;11.40;99.90
17619;DHT22;8928;51.678;6.074;2022-10-16T06:13:26;11.40;99.90
17619;DHT22;8928;51.678;6.074;2022-10-16T06:16:13;11.40;99.90
17619;DHT22;8928;51.678;6.074;2022-10-16T06:19:00;11.40;99.90
17619;DHT22;8928;51.678;6.074;2022-10-16T06:21:47;11.40;99.90
17619;DHT22;8928;51.678;6.074;2022-10-16T06:24:34;11.30;99.90
17619;DHT22;8928;51.678;6.074;2022-10-16T06:27:22;11.30;99.90
17619;DHT22;8928;51.678;6.074;2022-10-16T06:30:10;11.40;99.90
17619;DHT22;8928;51.678;6.074;2022-10-16T06:32:57;11.40;99.90
17619;DHT22;8928;51.678;6.074;2022-10-16T06:35:44;11.30;99.90
17619;DHT22;8928;51.678;6.074;2022-10-16T06:38:32;11.40;99.90
17619;DHT22;8928;51.678;6.074;2022-10-16T06:41:21;11.40;99.90
17619;DHT22;8928;51.678;6.074;2022-10-16T06:44:08;11.30;99.90
17619;DHT22;8928;51.678;6.074;2022-10-16T06:46:57;11.30;99.90
17619;DHT22;8928;51.678;6.074;2022-10-16T06:49:44;11.40;99.90
17619;DHT22;8928;51.678;6.074;2022-10-16T06:52:31;11.40;99.90
17619;DHT22;8928;51.678;6.074;2022-10-16T06:55:18;11.40;99.90
17619;DHT22;8928;51.678;6.074;2022-10-16T06:58:05;11.50;99.90
17619;DHT22;8928;51.678;6.074;2022-10-16T07:00:55;11.50;99.90
17619;DHT22;8928;51.678;6.074;2022-10-16T07:03:45;11.50;99.90
17619;DHT22;8928;51.678;6.074;2022-10-16T07:06:33;11.60;99.90
17619;DHT22;8928;51.678;6.074;2022-10-16T07:09:21;11.60;99.90
17619;DHT22;8928;51.678;6.074;2022-10-16T07:12:08;11.70;99.90
17619;DHT22;8928;51.678;6.074;2022-10-16T07:14:55;11.80;99.90
17619;DHT22;8928;51.678;6.074;2022-10-16T07:17:42;11.90;99.90
17619;DHT22;8928;51.678;6.074;2022-10-16T07:20:30;12.10;99.90
17619;DHT22;8928;51.678;6.074;2022-10-16T07:23:17;12.10;99.90
17619;DHT22;8928;51.678;6.074;2022-10-16T07:26:05;12.20;99.90
17619;DHT22;8928;51.678;6.074;2022-10-16T07:28:52;12.30;99.90
17619;DHT22;8928;51.678;6.074;2022-10-16T07:31:39;12.50;99.90
17619;DHT22;8928;51.678;6.074;2022-10-16T07:34:26;12.60;99.90
17619;DHT22;8928;51.678;6.074;2022-10-16T07:37:15;12.70;99.90
17619;DHT22;8928;51.678;6.074;2022-10-16T07:40:02;12.80;99.90
17619;DHT22;8928;51.678;6.074;2022-10-16T07:42:49;12.80;99.90
17619;DHT22;8928;51.678;6.074;2022-10-16T07:45:36;12.90;99.90
17619;DHT22;8928;51.678;6.074;2022-10-16T07:48:26;13.00;99.90
17619;DHT22;8928;51.678;6.074;2022-10-16T07:51:15;13.00;99.90
17619;DHT22;8928;51.678;6.074;2022-10-16T07:54:03;13.00;99.90
17619;DHT22;8928;51.678;6.074;2022-10-16T07:56:50;13.10;99.90
17619;DHT22;8928;51.678;6.074;2022-10-16T07:59:37;13.20;99.90
17619;DHT22;8928;51.678;6.074;2022-10-16T08:02:24;13.30;99.90
17619;DHT22;8928;51.678;6.074;2022-10-16T08:05:11;13.40;99.90
17619;DHT22;8928;51.678;6.074;2022-10-16T08:07:59;13.50;99.90
17619;DHT22;8928;51.678;6.074;2022-10-16T08:10:47;13.60;99.90
17619;DHT22;8928;51.678;6.074;2022-10-16T08:13:34;13.70;99.90
17619;DHT22;8928;51.678;6.074;2022-10-16T08:16:21;13.80;99.90
17619;DHT22;8928;51.678;6.074;2022-10-16T08:19:08;13.90;99.90
17619;DHT22;8928;51.678;6.074;2022-10-16T08:21:55;14.00;99.90
17619;DHT22;8928;51.678;6.074;2022-10-16T08:24:42;14.10;99.90
17619;DHT22;8928;51.678;6.074;2022-10-16T08:27:32;14.20;99.90
17619;DHT22;8928;51.678;6.074;2022-10-16T08:30:21;14.30;99.90
17619;DHT22;8928;51.678;6.074;2022-10-16T08:33:09;14.40;99.90
17619;DHT22;8928;51.678;6.074;2022-10-16T08:35:56;14.50;99.90
17619;DHT22;8928;51.678;6.074;2022-10-16T08:38:43;14.60;99.90
17619;DHT22;8928;51.678;6.074;2022-10-16T08:41:52;14.70;99.90
17619;DHT22;8928;51.678;6.074;2022-10-16T08:45:00;14.80;99.90
17619;DHT22;8928;51.678;6.074;2022-10-16T08:47:51;15.00;99.90
17619;DHT22;8928;51.678;6.074;2022-10-16T08:50:41;15.00;99.90
17619;DHT22;8928;51.678;6.074;2022-10-16T08:53:31;15.10;99.90
17619;DHT22;8928;51.678;6.074;2022-10-16T08:56:20;15.20;99.90
17619;DHT22;8928;51.678;6.074;2022-10-16T08:59:10;15.20;99.90
17619;DHT22;8928;51.678;6.074;2022-10-16T09:02:00;15.30;99.90
17619;DHT22;8928;51.678;6.074;2022-10-16T09:05:02;15.50;99.90
17619;DHT22;8928;51.678;6.074;2022-10-16T09:08:01;15.70;99.90
17619;DHT22;8928;51.678;6.074;2022-10-16T09:10:57;15.80;99.90
17619;DHT22;8928;51.678;6.074;2022-10-16T09:13:50;15.90;99.90
17619;DHT22;8928;51.678;6.074;2022-10-16T09:16:43;16.00;99.90
17619;DHT22;8928;51.678;6.074;2022-10-16T09:19:37;16.00;99.90
17619;DHT22;8928;51.678;6.074;2022-10-16T09:22:29;16.30;99.90
17619;DHT22;8928;51.678;6.074;2022-10-16T09:25:20;16.30;99.90
17619;DHT22;8928;51.678;6.074;2022-10-16T09:28:08;16.30;99.90
17619;DHT22;8928;51.678;6.074;2022-10-16T09:30:56;16.40;99.90
17619;DHT22;8928;51.678;6.074;2022-10-16T09:33:45;16.30;99.90
17619;DHT22;8928;51.678;6.074;2022-10-16T09:36:40;16.40;99.90
17619;DHT22;8928;51.678;6.074;2022-10-16T09:39:28;16.60;99.90
17619;DHT22;8928;51.678;6.074;2022-10-16T09:42:17;16.80;99.90
17619;DHT22;8928;51.678;6.074;2022-10-16T09:45:18;17.00;99.90
17619;DHT22;8928;51.678;6.074;2022-10-16T09:48:11;17.00;99.90
17619;DHT22;8928;51.678;6.074;2022-10-16T09:51:01;17.10;99.90
17619;DHT22;8928;51.678;6.074;2022-10-16T09:53:55;17.20;99.90
17619;DHT22;8928;51.678;6.074;2022-10-16T09:56:42;17.40;99.90
17619;DHT22;8928;51.678;6.074;2022-10-16T09:59:32;17.20;99.90
17619;DHT22;8928;51.678;6.074;2022-10-16T10:02:23;17.10;99.90
17619;DHT22;8928;51.678;6.074;2022-10-16T10:05:18;17.10;99.90
17619;DHT22;8928;51.678;6.074;2022-10-16T10:08:15;17.20;99.90
17619;DHT22;8928;51.678;6.074;2022-10-16T10:11:05;17.50;99.90
17619;DHT22;8928;51.678;6.074;2022-10-16T10:13:52;17.90;99.90
17619;DHT22;8928;51.678;6.074;2022-10-16T10:16:50;18.10;99.90
17619;DHT22;8928;51.678;6.074;2022-10-16T10:19:39;18.20;99.90
17619;DHT22;8928;51.678;6.074;2022-10-16T10:22:30;18.40;99.90
17619;DHT22;8928;51.678;6.074;2022-10-16T10:28:47;18.70;99.90
17619;DHT22;8928;51.678;6.074;2022-10-16T10:31:44;18.60;99.90
17619;DHT22;8928;51.678;6.074;2022-10-16T10:34:45;18.60;99.90
17619;DHT22;8928;51.678;6.074;2022-10-16T10:37:51;18.70;99.90
17619;DHT22;8928;51.678;6.074;2022-10-16T10:40:48;18.90;99.90
17619;DHT22;8928;51.678;6.074;2022-10-16T10:43:47;18.80;99.90
17619;DHT22;8928;51.678;6.074;2022-10-16T10:46:42;18.80;99.90
17619;DHT22;8928;51.678;6.074;2022-10-16T10:49:51;18.90;99.90
17619;DHT22;8928;51.678;6.074;2022-10-16T10:52:47;18.80;99.90
17619;DHT22;8928;51.678;6.074;2022-10-16T10:55:42;19.00;99.90
17619;DHT22;8928;51.678;6.074;2022-10-16T10:58:44;18.90;99.90
17619;DHT22;8928;51.678;6.074;2022-10-16T11:01:42;18.90;99.90
17619;DHT22;8928;51.678;6.074;2022-10-16T11:05:15;19.00;99.90
17619;DHT22;8928;51.678;6.074;2022-10-16T11:08:10;19.30;99.90
17619;DHT22;8928;51.678;6.074;2022-10-16T11:10:59;19.80;99.90
17619;DHT22;8928;51.678;6.074;2022-10-16T11:13:53;19.60;99.90
17619;DHT22;8928;51.678;6.074;2022-10-16T11:16:49;19.50;99.90
17619;DHT22;8928;51.678;6.074;2022-10-16T11:19:43;19.40;99.90
17619;DHT22;8928;51.678;6.074;2022-10-16T11:22:35;19.50;99.90
17619;DHT22;8928;51.678;6.074;2022-10-16T11:25:26;19.70;99.90
17619;DHT22;8928;51.678;6.074;2022-10-16T11:28:16;19.90;99.90
17619;DHT22;8928;51.678;6.074;2022-10-16T11:31:10;20.20;99.90
17619;DHT22;8928;51.678;6.074;2022-10-16T11:34:04;20.30;99.90
17619;DHT22;8928;51.678;6.074;2022-10-16T11:36:56;20.30;99.90
17619;DHT22;8928;51.678;6.074;2022-10-16T11:39:45;20.30;99.90
17619;DHT22;8928;51.678;6.074;2022-10-16T11:42:37;20.30;99.90
17619;DHT22;8928;51.678;6.074;2022-10-16T11:45:31;20.60;99.90
17619;DHT22;8928;51.678;6.074;2022-10-16T11:48:25;20.90;99.90
17619;DHT22;8928;51.678;6.074;2022-10-16T11:51:19;21.20;99.90
17619;DHT22;8928;51.678;6.074;2022-10-16T11:54:19;21.60;99.90
17619;DHT22;8928;51.678;6.074;2022-10-16T11:57:12;21.70;99.90
17619;DHT22;8928;51.678;6.074;2022-10-16T12:00:05;21.70;99.90
17619;DHT22;8928;51.678;6.074;2022-10-16T12:03:03;21.70;99.90
17619;DHT22;8928;51.678;6.074;2022-10-16T12:06:22;20.90;99.90
17619;DHT22;8928;51.678;6.074;2022-10-16T12:09:15;20.80;99.90
17619;DHT22;8928;51.678;6.074;2022-10-16T12:12:24;21.10;99.90
17619;DHT22;8928;51.678;6.074;2022-10-16T12:15:20;21.40;99.90
17619;DHT22;8928;51.678;6.074;2022-10-16T12:18:21;21.60;99.90
17619;DHT22;8928;51.678;6.074;2022-10-16T12:21:09;21.00;99.90
17619;DHT22;8928;51.678;6.074;2022-10-16T12:24:02;20.30;99.90
17619;DHT22;8928;51.678;6.074;2022-10-16T12:26:52;20.00;99.90
17619;DHT22;8928;51.678;6.074;2022-10-16T12:29:40;20.00;99.90
17619;DHT22;8928;51.678;6.074;2022-10-16T12:32:31;19.70;99.90
17619;DHT22;8928;51.678;6.074;2022-10-16T12:35:20;19.90;99.90
17619;DHT22;8928;51.678;6.074;2022-10-16T12:38:16;19.70;99.90
17619;DHT22;8928;51.678;6.074;2022-10-16T12:41:07;19.50;99.90
17619;DHT22;8928;51.678;6.074;2022-10-16T12:43:55;19.80;99.90
17619;DHT22;8928;51.678;6.074;2022-10-16T12:46:42;20.30;99.90
17619;DHT22;8928;51.678;6.074;2022-10-16T12:49:32;20.60;99.90
17619;DHT22;8928;51.678;6.074;2022-10-16T12:52:26;20.70;99.90
17619;DHT22;8928;51.678;6.074;2022-10-16T12:55:17;21.00;99.90
17619;DHT22;8928;51.678;6.074;2022-10-16T12:58:20;20.70;99.90
17619;DHT22;8928;51.678;6.074;2022-10-16T13:01:20;20.10;99.90
17619;DHT22;8928;51.678;6.074;2022-10-16T13:04:26;19.60;99.90
17619;DHT22;8928;51.678;6.074;2022-10-16T13:07:26;20.00;99.90
17619;DHT22;8928;51.678;6.074;2022-10-16T13:10:23;20.20;99.90
17619;DHT22;8928;51.678;6.074;2022-10-16T13:13:35;20.30;99.90
17619;DHT22;8928;51.678;6.074;2022-10-16T13:16:32;20.40;99.90
17619;DHT22;8928;51.678;6.074;2022-10-16T13:19:27;20.00;99.90
17619;DHT22;8928;51.678;6.074;2022-10-16T13:22:22;19.80;99.90
17619;DHT22;8928;51.678;6.074;2022-10-16T13:25:21;20.30;99.90
17619;DHT22;8928;51.678;6.074;2022-10-16T13:28:11;21.10;99.90
17619;DHT22;8928;51.678;6.074;2022-10-16T13:31:01;21.20;99.90
17619;DHT22;8928;51.678;6.074;2022-10-16T13:33:51;21.00;99.90
17619;DHT22;8928;51.678;6.074;2022-10-16T13:36:44;20.60;99.90
17619;DHT22;8928;51.678;6.074;2022-10-16T13:39:31;20.10;99.90
17619;DHT22;8928;51.678;6.074;2022-10-16T13:42:22;19.90;99.90
17619;DHT22;8928;51.678;6.074;2022-10-16T13:45:17;19.80;99.90
17619;DHT22;8928;51.678;6.074;2022-10-16T13:48:09;19.60;99.90
17619;DHT22;8928;51.678;6.074;2022-10-16T13:51:06;19.40;99.90
17619;DHT22;8928;51.678;6.074;2022-10-16T13:53:58;19.30;99.90
17619;DHT22;8928;51.678;6.074;2022-10-16T13:56:45;19.30;99.90
17619;DHT22;8928;51.678;6.074;2022-10-16T13:59:34;19.20;99.90
17619;DHT22;8928;51.678;6.074;2022-10-16T14:02:25;19.30;99.90
17619;DHT22;8928;51.678;6.074;2022-10-16T14:05:14;19.40;99.90
17619;DHT22;8928;51.678;6.074;2022-10-16T14:08:02;19.30;99.90
17619;DHT22;8928;51.678;6.074;2022-10-16T14:10:50;19.20;99.90
17619;DHT22;8928;51.678;6.074;2022-10-16T14:13:39;19.20;99.90
17619;DHT22;8928;51.678;6.074;2022-10-16T14:16:31;19.10;99.90
17619;DHT22;8928;51.678;6.074;2022-10-16T14:19:21;19.00;99.90
17619;DHT22;8928;51.678;6.074;2022-10-16T14:22:27;18.90;99.90
17619;DHT22;8928;51.678;6.074;2022-10-16T14:25:24;18.80;99.90
17619;DHT22;8928;51.678;6.074;2022-10-16T14:28:16;18.70;99.90
17619;DHT22;8928;51.678;6.074;2022-10-16T14:31:24;18.70;99.90
17619;DHT22;8928;51.678;6.074;2022-10-16T14:34:29;18.70;99.90
17619;DHT22;8928;51.678;6.074;2022-10-16T14:37:24;18.60;99.90
17619;DHT22;8928;51.678;6.074;2022-10-16T14:40:14;18.60;99.90
17619;DHT22;8928;51.678;6.074;2022-10-16T14:43:03;18.40;99.90
17619;DHT22;8928;51.678;6.074;2022-10-16T14:45:52;18.30;99.90
17619;DHT22;8928;51.678;6.074;2022-10-16T14:48:41;18.30;99.90
17619;DHT22;8928;51.678;6.074;2022-10-16T14:51:29;18.30;99.90
17619;DHT22;8928;51.678;6.074;2022-10-16T14:54:18;18.30;99.90
17619;DHT22;8928;51.678;6.074;2022-10-16T14:57:05;18.20;99.90
17619;DHT22;8928;51.678;6.074;2022-10-16T15:00:00;18.20;99.90
17619;DHT22;8928;51.678;6.074;2022-10-16T15:02:49;18.20;99.90
17619;DHT22;8928;51.678;6.074;2022-10-16T15:05:36;18.10;99.90
17619;DHT22;8928;51.678;6.074;2022-10-16T15:08:23;18.10;99.90
17619;DHT22;8928;51.678;6.074;2022-10-16T15:11:13;18.00;99.90
17619;DHT22;8928;51.678;6.074;2022-10-16T15:14:01;18.00;99.90
17619;DHT22;8928;51.678;6.074;2022-10-16T15:16:49;18.10;99.90
17619;DHT22;8928;51.678;6.074;2022-10-16T15:19:36;18.20;99.90
17619;DHT22;8928;51.678;6.074;2022-10-16T15:22:23;18.10;99.90
17619;DHT22;8928;51.678;6.074;2022-10-16T15:25:24;18.20;99.90
17619;DHT22;8928;51.678;6.074;2022-10-16T15:28:15;18.20;99.90
17619;DHT22;8928;51.678;6.074;2022-10-16T15:31:04;18.10;99.90
17619;DHT22;8928;51.678;6.074;2022-10-16T15:33:52;18.10;99.90
17619;DHT22;8928;51.678;6.074;2022-10-16T15:36:43;17.90;99.90
17619;DHT22;8928;51.678;6.074;2022-10-16T15:39:30;17.90;99.90
17619;DHT22;8928;51.678;6.074;2022-10-16T15:42:17;17.80;99.90
17619;DHT22;8928;51.678;6.074;2022-10-16T15:45:08;17.70;99.90
17619;DHT22;8928;51.678;6.074;2022-10-16T15:47:55;17.50;99.90
17619;DHT22;8928;51.678;6.074;2022-10-16T15:50:42;17.40;99.90
17619;DHT22;8928;51.678;6.074;2022-10-16T15:53:29;17.20;99.90
17619;DHT22;8928;51.678;6.074;2022-10-16T15:56:16;17.10;99.90
17619;DHT22;8928;51.678;6.074;2022-10-16T15:59:04;16.90;99.90
17619;DHT22;8928;51.678;6.074;2022-10-16T16:01:52;16.70;99.90
17619;DHT22;8928;51.678;6.074;2022-10-16T16:04:39;16.60;99.90
17619;DHT22;8928;51.678;6.074;2022-10-16T16:07:26;16.50;99.90
17619;DHT22;8928;51.678;6.074;2022-10-16T16:10:14;16.40;99.90
17619;DHT22;8928;51.678;6.074;2022-10-16T16:13:01;16.30;99.90
17619;DHT22;8928;51.678;6.074;2022-10-16T16:15:48;16.20;99.90
17619;DHT22;8928;51.678;6.074;2022-10-16T16:18:36;16.10;99.90
17619;DHT22;8928;51.678;6.074;2022-10-16T16:21:23;16.00;99.90
17619;DHT22;8928;51.678;6.074;2022-10-16T16:24:10;15.90;99.90
17619;DHT22;8928;51.678;6.074;2022-10-16T16:26:57;15.80;99.90
17619;DHT22;8928;51.678;6.074;2022-10-16T16:29:44;15.80;99.90
17619;DHT22;8928;51.678;6.074;2022-10-16T16:32:31;15.70;99.90
17619;DHT22;8928;51.678;6.074;2022-10-16T16:35:20;15.50;99.90
17619;DHT22;8928;51.678;6.074;2022-10-16T16:38:07;15.40;99.90
17619;DHT22;8928;51.678;6.074;2022-10-16T16:40:54;15.30;99.90
17619;DHT22;8928;51.678;6.074;2022-10-16T16:43:41;15.20;99.90
17619;DHT22;8928;51.678;6.074;2022-10-16T16:46:28;15.10;99.90
17619;DHT22;8928;51.678;6.074;2022-10-16T16:49:15;15.00;99.90
17619;DHT22;8928;51.678;6.074;2022-10-16T16:52:04;15.00;99.90
17619;DHT22;8928;51.678;6.074;2022-10-16T16:54:51;15.00;99.90
17619;DHT22;8928;51.678;6.074;2022-10-16T16:57:38;14.90;99.90
17619;DHT22;8928;51.678;6.074;2022-10-16T17:00:25;14.90;99.90
17619;DHT22;8928;51.678;6.074;2022-10-16T17:03:12;14.90;99.90
17619;DHT22;8928;51.678;6.074;2022-10-16T17:06:02;14.80;99.90
17619;DHT22;8928;51.678;6.074;2022-10-16T17:08:50;14.80;99.90
17619;DHT22;8928;51.678;6.074;2022-10-16T17:11:37;14.80;99.90
17619;DHT22;8928;51.678;6.074;2022-10-16T17:14:27;14.70;99.90
17619;DHT22;8928;51.678;6.074;2022-10-16T17:17:14;14.60;99.90
17619;DHT22;8928;51.678;6.074;2022-10-16T17:20:01;14.60;99.90
17619;DHT22;8928;51.678;6.074;2022-10-16T17:22:48;14.60;99.90
17619;DHT22;8928;51.678;6.074;2022-10-16T17:25:37;14.50;99.90
17619;DHT22;8928;51.678;6.074;2022-10-16T17:28:24;14.50;99.90
17619;DHT22;8928;51.678;6.074;2022-10-16T17:31:13;14.50;99.90
17619;DHT22;8928;51.678;6.074;2022-10-16T17:34:02;14.40;99.90
17619;DHT22;8928;51.678;6.074;2022-10-16T17:36:50;14.40;99.90
17619;DHT22;8928;51.678;6.074;2022-10-16T17:39:38;14.40;99.90
17619;DHT22;8928;51.678;6.074;2022-10-16T17:42:29;14.50;99.90
17619;DHT22;8928;51.678;6.074;2022-10-16T17:45:16;14.40;99.90
17619;DHT22;8928;51.678;6.074;2022-10-16T17:48:04;14.40;99.90
17619;DHT22;8928;51.678;6.074;2022-10-16T17:50:51;14.40;99.90
17619;DHT22;8928;51.678;6.074;2022-10-16T17:53:39;14.40;99.90
17619;DHT22;8928;51.678;6.074;2022-10-16T17:56:26;14.40;99.90
17619;DHT22;8928;51.678;6.074;2022-10-16T17:59:15;14.30;99.90
17619;DHT22;8928;51.678;6.074;2022-10-16T18:02:02;14.30;99.90
17619;DHT22;8928;51.678;6.074;2022-10-16T18:04:49;14.30;99.90
17619;DHT22;8928;51.678;6.074;2022-10-16T18:07:37;14.20;99.90
17619;DHT22;8928;51.678;6.074;2022-10-16T18:10:24;14.20;99.90
17619;DHT22;8928;51.678;6.074;2022-10-16T18:13:11;14.20;99.90
17619;DHT22;8928;51.678;6.074;2022-10-16T18:16:00;14.30;99.90